createdAt,value
2019-02-07T00:00:44.719Z,93.56
2019-02-07T00:01:44.672Z,94.03
2019-02-07T00:02:44.637Z,93.75
2019-02-07T00:03:44.594Z,92.99
2019-02-07T00:04:44.551Z,92.42
2019-02-07T00:05:44.508Z,90.05
2019-02-07T00:06:44.464Z,91.56
2019-02-07T00:07:44.425Z,92.32
2019-02-07T00:08:44.386Z,90.14
2019-02-07T00:09:44.347Z,91.56
2019-02-07T00:10:44.303Z,91.75
2019-02-07T00:11:44.262Z,90.52
2019-02-07T00:12:44.218Z,89.67
2019-02-07T00:13:44.174Z,89.76
2019-02-07T00:14:44.133Z,89.57
2019-02-07T00:15:44.097Z,89.76
2019-02-07T00:16:44.053Z,89.86
2019-02-07T00:17:44.012Z,88.62
2019-02-07T00:18:43.964Z,90.71
2019-02-07T00:19:43.924Z,89.76
2019-02-07T00:20:43.886Z,89.76
2019-02-07T00:21:43.845Z,90.61
2019-02-07T00:22:43.803Z,90.61
2019-02-07T00:23:43.759Z,89.86
2019-02-07T00:24:43.717Z,88.81
2019-02-07T00:25:43.679Z,89.09
2019-02-07T00:26:43.631Z,88.81
2019-02-07T00:27:43.590Z,87.38
2019-02-07T00:28:43.555Z,86.91
2019-02-07T00:29:43.515Z,86.15
2019-02-07T00:30:43.469Z,85.68
2019-02-07T00:31:43.425Z,85.01
2019-02-07T00:32:43.383Z,83.68
2019-02-07T00:33:43.337Z,83.78
2019-02-07T00:34:43.306Z,83.01
2019-02-07T00:35:43.259Z,80.26
2019-02-07T00:36:43.216Z,77.60
2019-02-07T00:37:43.173Z,76.56
2019-02-07T00:38:43.138Z,75.89
2019-02-07T00:39:43.088Z,73.04
2019-02-07T00:40:43.054Z,72.28
2019-02-07T00:41:43.011Z,72.19
2019-02-07T00:42:42.968Z,70.19
2019-02-07T00:43:42.927Z,69.62
2019-02-07T00:44:50.419Z,68.67
2019-02-07T00:45:42.841Z,67.63
2019-02-07T00:46:42.796Z,66.87
2019-02-07T00:47:42.760Z,65.73
2019-02-07T00:48:42.718Z,65.16
2019-02-07T00:49:42.678Z,64.11
2019-02-07T00:50:42.631Z,62.59
2019-02-07T00:51:42.600Z,62.69
2019-02-07T00:52:42.555Z,61.83
2019-02-07T00:53:42.516Z,59.93
2019-02-07T00:54:42.473Z,58.89
2019-02-07T00:55:42.427Z,58.32
2019-02-07T00:56:42.384Z,56.89
2019-02-07T00:57:42.342Z,55.18
2019-02-07T00:58:42.301Z,51.57
2019-02-07T00:59:42.257Z,50.43
2019-02-07T01:00:42.219Z,49.96
2019-02-07T01:01:42.184Z,48.35
2019-02-07T01:02:42.137Z,47.02
2019-02-07T01:03:42.093Z,45.12
2019-02-07T01:04:42.052Z,43.60
2019-02-07T01:05:42.007Z,42.65
2019-02-07T01:06:41.971Z,42.17
2019-02-07T01:07:41.927Z,40.94
2019-02-07T01:08:41.885Z,39.13
2019-02-07T01:09:41.842Z,37.33
2019-02-07T01:10:41.899Z,36.28
2019-02-07T01:11:41.802Z,35.24
2019-02-07T01:12:41.721Z,34.48
2019-02-07T01:13:41.680Z,32.96
2019-02-07T01:14:41.641Z,32.10
2019-02-07T01:15:41.594Z,29.82
2019-02-07T01:16:41.552Z,28.40
2019-02-07T01:17:41.508Z,28.88
2019-02-07T01:18:41.465Z,28.21
2019-02-07T01:19:41.427Z,27.73
2019-02-07T01:20:41.389Z,26.21
2019-02-07T01:21:41.375Z,25.74
2019-02-07T01:22:41.299Z,25.45
2019-02-07T01:23:41.261Z,25.26
2019-02-07T01:24:41.228Z,25.84
2019-02-07T01:25:41.183Z,24.51
2019-02-07T01:26:41.141Z,25.17
2019-02-07T01:27:41.097Z,25.45
2019-02-07T01:28:41.053Z,24.03
2019-02-07T01:29:41.011Z,21.47
2019-02-07T01:30:40.967Z,21.66
2019-02-07T01:31:40.931Z,22.51
2019-02-07T01:32:40.903Z,21.66
2019-02-07T01:33:40.855Z,21.37
2019-02-07T01:34:40.807Z,22.80
2019-02-07T01:35:40.763Z,23.08
2019-02-07T01:36:40.725Z,23.55
2019-02-07T01:37:40.678Z,24.60
2019-02-07T01:38:40.639Z,23.46
2019-02-07T01:39:40.597Z,24.41
2019-02-07T01:40:40.557Z,24.03
2019-02-07T01:41:40.513Z,24.32
2019-02-07T01:42:40.472Z,23.36
2019-02-07T01:43:40.427Z,23.46
2019-02-07T01:44:40.390Z,23.18
2019-02-07T01:45:40.349Z,23.55
2019-02-07T01:46:40.309Z,22.99
2019-02-07T01:47:40.264Z,24.69
2019-02-07T01:48:40.222Z,25.26
2019-02-07T01:49:40.178Z,24.41
2019-02-07T01:50:40.140Z,24.41
2019-02-07T01:51:40.095Z,25.36
2019-02-07T01:52:40.060Z,26.12
2019-02-07T01:53:40.018Z,26.40
2019-02-07T01:54:39.970Z,25.93
2019-02-07T01:55:39.927Z,25.55
2019-02-07T01:56:39.888Z,26.88
2019-02-07T01:57:39.849Z,27.07
2019-02-07T01:58:39.811Z,26.03
2019-02-07T01:59:39.764Z,26.12
2019-02-07T02:00:39.720Z,27.07
2019-02-07T02:01:39.683Z,26.40
2019-02-07T02:02:39.638Z,26.50
2019-02-07T02:03:39.596Z,27.36
2019-02-07T02:04:39.559Z,26.50
2019-02-07T02:05:39.518Z,25.93
2019-02-07T02:06:39.477Z,25.55
2019-02-07T02:07:39.432Z,26.88
2019-02-07T02:08:39.395Z,27.26
2019-02-07T02:09:39.347Z,28.30
2019-02-07T02:10:39.312Z,27.36
2019-02-07T02:11:39.270Z,26.97
2019-02-07T02:12:39.222Z,27.64
2019-02-07T02:13:39.184Z,27.83
2019-02-07T02:14:39.135Z,27.55
2019-02-07T02:15:39.096Z,28.88
2019-02-07T02:16:39.059Z,28.97
2019-02-07T02:17:39.018Z,29.44
2019-02-07T02:18:38.970Z,29.44
2019-02-07T02:19:38.929Z,29.92
2019-02-07T02:20:38.892Z,29.25
2019-02-07T02:21:38.872Z,30.49
2019-02-07T02:22:38.811Z,31.15
2019-02-07T02:23:38.786Z,31.72
2019-02-07T02:24:38.725Z,31.72
2019-02-07T02:25:47.567Z,31.92
2019-02-07T02:27:52.101Z,33.72
2019-02-07T02:30:25.453Z,33.34
2019-02-07T02:31:24.928Z,34.29
2019-02-07T02:33:20.627Z,35.05
2019-02-07T04:06:06.191Z,4.17
2019-02-07T04:07:06.112Z,9.21
2019-02-07T04:08:06.053Z,9.40
2019-02-07T04:09:06.021Z,9.69
2019-02-07T04:10:06.026Z,9.59
2019-02-07T04:11:05.922Z,10.16
2019-02-07T04:12:05.994Z,9.97
2019-02-07T04:13:05.834Z,9.97
2019-02-07T04:14:05.787Z,9.31
2019-02-07T04:15:05.744Z,8.64
2019-02-07T04:16:14.706Z,8.54
2019-02-07T04:17:05.662Z,8.45
2019-02-07T04:18:05.617Z,8.45
2019-02-07T04:19:05.573Z,7.98
2019-02-07T04:20:05.539Z,7.50
2019-02-07T04:21:05.485Z,6.93
2019-02-07T04:22:05.445Z,5.69
2019-02-07T04:23:05.410Z,5.60
2019-02-07T04:24:05.404Z,5.41
2019-02-07T04:25:05.314Z,3.80
2019-02-07T04:26:05.275Z,1.23
2019-02-07T04:27:05.235Z,1.80
2019-02-07T04:28:05.189Z,2.18
2019-02-07T04:29:05.150Z,1.23
2019-02-07T04:30:05.107Z,0.00
2019-02-07T04:31:05.062Z,0.00
2019-02-07T04:32:05.023Z,0.00
2019-02-07T04:33:04.976Z,0.00
2019-02-07T04:34:04.933Z,0.09
2019-02-07T04:35:04.928Z,0.00
2019-02-07T04:36:04.863Z,0.00
2019-02-07T04:37:04.819Z,0.00
2019-02-07T04:38:04.777Z,0.00
2019-02-07T04:39:04.731Z,0.00
2019-02-07T04:40:04.684Z,0.00
2019-02-07T04:41:04.645Z,0.57
2019-02-07T04:42:04.605Z,1.04
2019-02-07T04:43:04.562Z,1.61
2019-02-07T04:44:04.521Z,1.99
2019-02-07T04:45:04.473Z,2.47
2019-02-07T04:46:04.433Z,2.47
2019-02-07T04:47:04.398Z,2.94
2019-02-07T04:48:04.349Z,3.51
2019-02-07T04:49:04.315Z,3.80
2019-02-07T04:50:04.268Z,3.89
2019-02-07T04:51:04.241Z,5.03
2019-02-07T04:52:04.187Z,5.60
2019-02-07T04:53:04.144Z,6.46
2019-02-07T04:54:04.101Z,6.93
2019-02-07T04:55:04.064Z,6.17
2019-02-07T04:56:04.019Z,6.46
2019-02-07T04:57:03.974Z,7.03
2019-02-07T04:58:03.933Z,7.31
2019-02-07T04:59:03.890Z,6.93
2019-02-07T05:00:03.848Z,6.55
2019-02-07T05:01:03.813Z,6.55
2019-02-07T05:02:03.770Z,6.08
2019-02-07T05:03:03.730Z,6.84
2019-02-07T05:04:03.691Z,5.88
2019-02-07T05:05:03.644Z,4.75
2019-02-07T05:06:03.601Z,4.84
2019-02-07T05:07:03.556Z,4.56
2019-02-07T05:08:03.513Z,4.94
2019-02-07T05:09:03.482Z,4.75
2019-02-07T05:10:03.434Z,3.80
2019-02-07T05:11:03.389Z,1.99
2019-02-07T05:12:03.350Z,1.90
2019-02-07T05:13:03.315Z,2.37
2019-02-07T05:14:03.286Z,0.00
2019-02-07T05:15:03.226Z,0.00
2019-02-07T05:16:03.187Z,0.00
2019-02-07T05:17:03.141Z,0.00
2019-02-07T05:18:03.097Z,0.00
2019-02-07T05:19:03.056Z,0.00
2019-02-07T05:20:03.019Z,0.00
2019-02-07T05:21:02.979Z,0.00
2019-02-07T05:22:02.932Z,0.00
2019-02-07T05:23:02.896Z,0.00
2019-02-07T05:24:02.853Z,0.00
2019-02-07T05:25:02.807Z,0.00
2019-02-07T05:26:02.765Z,0.00
2019-02-07T05:27:02.725Z,0.00
2019-02-07T05:28:02.688Z,0.00
2019-02-07T05:29:02.638Z,0.00
2019-02-07T05:30:02.601Z,0.00
2019-02-07T05:31:02.558Z,0.00
2019-02-07T05:32:02.513Z,0.00
2019-02-07T05:33:02.482Z,0.00
2019-02-07T05:34:02.436Z,0.00
2019-02-07T05:35:02.392Z,0.00
2019-02-07T05:36:02.352Z,0.00
2019-02-07T05:37:02.309Z,0.00
2019-02-07T05:38:02.267Z,0.00
2019-02-07T05:39:02.222Z,0.00
2019-02-07T05:40:02.188Z,0.00
2019-02-07T05:41:02.144Z,0.00
2019-02-07T05:42:02.097Z,0.00
2019-02-07T05:43:02.056Z,0.00
2019-02-07T05:44:02.019Z,0.00
2019-02-07T05:45:01.983Z,0.00
2019-02-07T05:46:01.951Z,0.00
2019-02-07T05:47:01.896Z,0.00
2019-02-07T05:48:01.851Z,0.00
2019-02-07T05:49:01.805Z,0.00
2019-02-07T05:50:01.766Z,0.00
2019-02-07T05:51:01.721Z,0.00
2019-02-07T05:52:01.680Z,0.00
2019-02-07T05:53:01.642Z,0.00
2019-02-07T05:54:01.605Z,0.00
2019-02-07T05:55:01.571Z,0.00
2019-02-07T05:56:01.522Z,0.00
2019-02-07T05:57:01.472Z,0.00
2019-02-07T05:58:10.088Z,0.00
2019-02-07T06:00:05.844Z,0.00
2019-02-07T06:01:05.765Z,0.00
2019-02-07T06:02:05.725Z,0.00
2019-02-07T06:03:05.686Z,0.00
2019-02-07T06:04:05.641Z,0.00
2019-02-07T06:05:05.616Z,0.00
2019-02-07T06:06:05.561Z,0.00
2019-02-07T06:07:05.520Z,0.00
2019-02-07T06:08:05.480Z,0.00
2019-02-07T06:09:05.437Z,0.00
2019-02-07T06:10:05.392Z,0.00
2019-02-07T06:11:05.354Z,0.00
2019-02-07T06:12:05.314Z,0.00
2019-02-07T06:13:05.265Z,0.00
2019-02-07T06:14:05.229Z,0.00
2019-02-07T06:15:05.183Z,0.00
2019-02-07T06:16:05.141Z,0.00
2019-02-07T06:17:05.110Z,0.00
2019-02-07T06:18:05.063Z,0.00
2019-02-07T06:19:05.022Z,0.00
2019-02-07T06:20:04.981Z,0.00
2019-02-07T06:21:04.933Z,0.00
2019-02-07T06:22:04.898Z,0.00
2019-02-07T06:23:04.885Z,0.00
2019-02-07T06:24:04.818Z,0.00
2019-02-07T06:25:04.801Z,0.00
2019-02-07T06:26:04.729Z,0.00
2019-02-07T06:27:04.697Z,0.00
2019-02-07T06:28:04.641Z,0.00
2019-02-07T06:29:04.607Z,0.00
2019-02-07T06:30:04.563Z,0.00
2019-02-07T06:31:04.521Z,0.00
2019-02-07T06:32:04.482Z,0.00
2019-02-07T06:33:04.433Z,0.00
2019-02-07T06:34:07.356Z,0.00
2019-02-07T06:35:04.355Z,0.00
2019-02-07T06:36:04.321Z,0.00
2019-02-07T06:37:04.275Z,0.00
2019-02-07T06:38:04.232Z,0.00
2019-02-07T06:39:04.190Z,0.00
2019-02-07T06:40:04.150Z,0.00
2019-02-07T06:41:04.103Z,0.00
2019-02-07T06:42:04.061Z,0.00
2019-02-07T06:43:04.026Z,0.00
2019-02-07T06:44:03.983Z,0.00
2019-02-07T06:45:06.141Z,0.00
2019-02-07T06:46:03.906Z,0.00
2019-02-07T06:47:13.302Z,0.00
2019-02-07T06:48:03.809Z,0.00
2019-02-07T06:49:03.774Z,0.00
2019-02-07T06:50:03.736Z,0.00
2019-02-07T06:51:03.689Z,0.00
2019-02-07T06:52:03.651Z,0.00
2019-02-07T06:53:03.610Z,0.00
2019-02-07T06:54:03.563Z,0.00
2019-02-07T06:55:03.521Z,0.00
2019-02-07T06:56:03.477Z,0.00
2019-02-07T06:57:03.442Z,0.00
2019-02-07T06:58:03.399Z,0.00
2019-02-07T06:59:03.355Z,0.00
2019-02-07T07:00:03.311Z,0.00
2019-02-07T07:01:03.287Z,0.00
2019-02-07T07:02:03.232Z,0.00
2019-02-07T07:03:03.191Z,0.00
2019-02-07T07:04:03.154Z,0.00
2019-02-07T07:05:03.102Z,0.00
2019-02-07T07:06:03.062Z,0.00
2019-02-07T07:07:03.037Z,0.00
2019-02-07T07:08:02.980Z,0.00
2019-02-07T07:09:02.942Z,0.00
2019-02-07T07:10:02.899Z,0.00
2019-02-07T07:11:02.858Z,0.00
2019-02-07T07:12:02.819Z,0.00
2019-02-07T07:13:02.774Z,0.00
2019-02-07T07:14:02.731Z,0.00
2019-02-07T07:15:02.691Z,0.00
2019-02-07T07:16:02.654Z,0.00
2019-02-07T07:17:02.603Z,0.00
2019-02-07T07:18:02.564Z,0.00
2019-02-07T07:19:02.524Z,0.00
2019-02-07T07:20:02.479Z,0.00
2019-02-07T07:21:02.444Z,0.00
2019-02-07T07:22:02.410Z,0.00
2019-02-07T07:23:02.358Z,0.00
2019-02-07T07:24:02.319Z,0.00
2019-02-07T07:25:02.273Z,0.00
2019-02-07T07:26:02.231Z,0.00
2019-02-07T07:27:02.191Z,0.00
2019-02-07T07:28:02.150Z,0.00
2019-02-07T07:29:02.130Z,0.00
2019-02-07T07:30:02.074Z,0.00
2019-02-07T07:31:02.031Z,0.00
2019-02-07T07:32:01.982Z,0.00
2019-02-07T07:33:01.949Z,0.00
2019-02-07T07:34:01.902Z,0.00
2019-02-07T07:35:01.862Z,0.00
2019-02-07T07:36:01.823Z,0.00
2019-02-07T07:37:01.773Z,0.00
2019-02-07T07:38:01.734Z,0.00
2019-02-07T07:39:01.691Z,0.00
2019-02-07T07:40:01.652Z,0.00
2019-02-07T07:41:01.624Z,0.00
2019-02-07T07:42:01.573Z,0.00
2019-02-07T07:43:01.535Z,0.00
2019-02-07T07:44:01.489Z,0.00
2019-02-07T07:45:01.465Z,0.00
2019-02-07T07:46:01.402Z,0.00
2019-02-07T07:47:01.366Z,0.00
2019-02-07T07:48:01.322Z,0.00
2019-02-07T07:49:01.279Z,0.00
2019-02-07T07:50:01.237Z,0.00
2019-02-07T07:51:01.194Z,0.00
2019-02-07T07:52:01.156Z,0.00
2019-02-07T07:53:01.116Z,0.00
2019-02-07T07:54:01.077Z,0.00
2019-02-07T07:55:01.034Z,0.00
2019-02-07T07:56:00.991Z,0.00
2019-02-07T07:57:00.946Z,0.00
2019-02-07T07:58:00.903Z,0.00
2019-02-07T07:59:00.869Z,0.00
2019-02-07T08:00:00.828Z,0.00
2019-02-07T08:01:00.783Z,0.76
2019-02-07T08:02:00.746Z,2.56
2019-02-07T08:03:00.697Z,3.13
2019-02-07T08:04:00.658Z,2.85
2019-02-07T08:05:00.621Z,3.32
2019-02-07T08:06:00.579Z,5.13
2019-02-07T08:07:00.538Z,5.13
2019-02-07T08:08:00.495Z,5.32
2019-02-07T08:09:00.455Z,6.18
2019-02-07T08:10:00.406Z,4.65
2019-02-07T08:11:00.368Z,4.18
2019-02-07T08:12:00.333Z,5.22
2019-02-07T08:13:00.286Z,3.61
2019-02-07T08:14:00.251Z,5.32
2019-02-07T08:15:00.331Z,6.37
2019-02-07T08:16:00.190Z,6.37
2019-02-07T08:17:00.121Z,4.56
2019-02-07T08:18:00.076Z,4.37
2019-02-07T08:19:00.047Z,2.75
2019-02-07T08:20:00.001Z,1.80
2019-02-07T08:20:59.954Z,1.52
2019-02-07T08:21:59.910Z,1.52
2019-02-07T08:22:59.870Z,0.28
2019-02-07T08:23:59.833Z,0.57
2019-02-07T08:24:59.791Z,0.66
2019-02-07T08:25:59.753Z,1.80
2019-02-07T08:26:59.728Z,2.75
2019-02-07T08:27:59.669Z,3.32
2019-02-07T08:28:59.626Z,4.08
2019-02-07T08:29:59.581Z,4.46
2019-02-07T08:30:59.540Z,5.41
2019-02-07T08:31:59.501Z,5.22
2019-02-07T08:32:59.462Z,6.18
2019-02-07T08:33:59.421Z,6.84
2019-02-07T08:34:59.374Z,7.22
2019-02-07T08:35:59.336Z,7.03
2019-02-07T08:36:59.297Z,7.79
2019-02-07T08:37:59.256Z,8.07
2019-02-07T08:38:59.216Z,7.22
2019-02-07T08:39:59.178Z,6.93
2019-02-07T08:40:59.129Z,7.51
2019-02-07T08:41:59.087Z,6.65
2019-02-07T08:42:59.045Z,6.27
2019-02-07T08:43:59.059Z,6.18
2019-02-07T08:44:58.995Z,4.37
2019-02-07T08:45:58.934Z,4.46
2019-02-07T08:46:58.887Z,2.37
2019-02-07T08:47:59.071Z,1.90
2019-02-07T08:49:01.033Z,0.66
2019-02-07T08:49:58.757Z,0.47
2019-02-07T08:50:58.728Z,0.00
2019-02-07T08:51:58.685Z,0.00
2019-02-07T08:52:58.636Z,0.00
2019-02-07T08:53:58.593Z,0.00
2019-02-07T08:54:58.554Z,0.00
2019-02-07T08:55:58.514Z,0.00
2019-02-07T08:56:58.473Z,0.00
2019-02-07T08:57:58.436Z,0.00
2019-02-07T08:58:58.392Z,0.00
2019-02-07T08:59:58.351Z,0.00
2019-02-07T09:00:58.306Z,0.00
2019-02-07T09:01:58.262Z,0.00
2019-02-07T09:02:58.222Z,0.00
2019-02-07T09:03:58.188Z,0.00
2019-02-07T09:04:58.150Z,0.00
2019-02-07T09:05:58.111Z,0.00
2019-02-07T09:06:58.057Z,0.00
2019-02-07T09:07:58.056Z,0.00
2019-02-07T09:08:57.978Z,0.00
2019-02-07T09:09:57.939Z,0.00
2019-02-07T09:10:57.898Z,0.00
2019-02-07T09:11:57.858Z,0.00
2019-02-07T09:12:57.811Z,0.00
2019-02-07T09:13:57.770Z,0.00
2019-02-07T09:14:57.729Z,0.00
2019-02-07T09:15:57.690Z,0.00
2019-02-07T09:16:57.649Z,0.00
2019-02-07T09:17:57.610Z,0.00
2019-02-07T09:18:57.571Z,0.00
2019-02-07T09:19:57.527Z,0.00
2019-02-07T09:20:57.484Z,0.00
2019-02-07T09:21:57.441Z,0.00
2019-02-07T09:22:57.405Z,0.00
2019-02-07T09:23:57.369Z,0.00
2019-02-07T09:24:57.319Z,0.00
2019-02-07T09:25:57.276Z,0.00
2019-02-07T09:26:57.235Z,0.00
2019-02-07T09:27:57.203Z,0.00
2019-02-07T09:28:57.159Z,0.00
2019-02-07T09:29:57.118Z,0.00
2019-02-07T09:30:57.078Z,0.00
2019-02-07T09:31:57.036Z,0.00
2019-02-07T09:32:56.992Z,0.00
2019-02-07T09:33:56.949Z,0.00
2019-02-07T09:34:56.911Z,0.00
2019-02-07T09:36:04.889Z,0.00
2019-02-07T09:36:56.830Z,0.00
2019-02-07T09:37:56.792Z,0.00
2019-02-07T09:38:56.744Z,0.00
2019-02-07T09:39:56.709Z,0.00
2019-02-07T09:40:56.669Z,0.00
2019-02-07T09:41:56.628Z,0.00
2019-02-07T09:42:56.588Z,0.00
2019-02-07T09:43:56.546Z,0.00
2019-02-07T09:44:56.503Z,0.00
2019-02-07T09:45:56.460Z,0.00
2019-02-07T09:46:56.418Z,0.09
2019-02-07T09:47:56.381Z,0.00
2019-02-07T09:48:56.345Z,0.76
2019-02-07T09:49:56.303Z,2.19
2019-02-07T09:50:56.262Z,5.13
2019-02-07T09:51:56.221Z,8.08
2019-02-07T09:52:56.178Z,14.26
2019-02-07T09:53:56.135Z,16.06
2019-02-07T09:54:56.100Z,17.22
2019-02-07T09:55:56.057Z,24.43
2019-02-07T09:56:56.016Z,29.96
2019-02-07T09:57:55.972Z,29.58
2019-02-07T09:58:55.933Z,30.54
2019-02-07T09:59:55.895Z,31.48
2019-02-07T10:00:55.856Z,38.34
2019-02-07T10:01:55.819Z,41.57
2019-02-07T10:02:55.777Z,39.57
2019-02-07T10:03:55.739Z,43.38
2019-02-07T10:04:55.691Z,42.33
2019-02-07T10:19:27.854Z,44.42
2019-02-07T10:20:27.782Z,45.28
2019-02-07T10:21:27.736Z,58.03
2019-02-07T10:22:27.703Z,54.89
2019-02-07T10:23:27.655Z,52.32
2019-02-07T10:24:27.613Z,54.03
2019-02-07T10:25:27.569Z,51.46
2019-02-07T10:26:27.526Z,49.56
2019-02-07T10:27:27.480Z,50.42
2019-02-07T10:28:27.434Z,56.70
2019-02-07T10:29:27.400Z,56.31
2019-02-07T10:30:27.357Z,56.31
2019-02-07T10:31:27.316Z,56.03
2019-02-07T10:32:27.268Z,57.55
2019-02-07T10:33:27.226Z,58.50
2019-02-07T10:34:27.188Z,57.84
2019-02-07T10:35:27.148Z,62.78
2019-02-07T10:36:27.108Z,60.24
2019-02-07T10:37:27.068Z,58.91
2019-02-07T10:38:27.025Z,62.88
2019-02-07T10:39:26.987Z,64.50
2019-02-07T10:40:26.941Z,63.01
2019-02-07T10:41:26.902Z,61.10
2019-02-07T10:42:26.861Z,67.67
2019-02-07T10:43:26.824Z,64.24
2019-02-07T10:44:26.870Z,62.34
2019-02-07T10:45:26.738Z,63.29
2019-02-07T10:46:26.698Z,61.96
2019-02-07T10:47:26.660Z,68.52
2019-02-07T10:48:26.624Z,69.82
2019-02-07T10:49:26.581Z,65.58
2019-02-07T10:50:26.539Z,65.19
2019-02-07T10:51:26.496Z,68.62
2019-02-07T10:52:26.454Z,67.00
2019-02-07T10:53:26.417Z,68.52
2019-02-07T10:54:26.377Z,70.24
2019-02-07T10:55:26.339Z,71.76
2019-02-07T10:56:26.297Z,75.19
2019-02-07T10:57:26.257Z,72.33
2019-02-07T10:58:26.219Z,72.05
2019-02-07T10:59:26.177Z,73.95
2019-02-07T11:00:26.135Z,71.38
2019-02-07T11:01:26.096Z,72.42
2019-02-07T11:02:26.059Z,71.86
2019-02-07T11:03:26.012Z,76.14
2019-02-07T11:04:25.977Z,77.19
2019-02-07T11:05:25.934Z,72.42
2019-02-07T11:06:25.899Z,73.00
2019-02-07T11:07:25.857Z,72.42
2019-02-07T11:08:25.815Z,75.67
2019-02-07T11:09:25.776Z,74.99
2019-02-07T11:10:25.739Z,74.52
2019-02-07T11:11:25.702Z,76.04
2019-02-07T11:12:25.654Z,76.81
2019-02-07T11:13:25.617Z,77.19
2019-02-07T11:14:25.592Z,76.23
2019-02-07T11:15:25.538Z,77.09
2019-02-07T11:16:25.497Z,76.04
2019-02-07T11:17:25.455Z,75.57
2019-02-07T11:18:25.412Z,74.52
2019-02-07T11:19:25.380Z,79.75
2019-02-07T11:20:25.337Z,77.47
2019-02-07T11:21:25.296Z,77.19
2019-02-07T11:22:25.258Z,79.57
2019-02-07T11:23:25.214Z,80.71
2019-02-07T11:24:25.175Z,78.04
2019-02-07T11:25:25.135Z,78.99
2019-02-07T11:26:25.096Z,82.61
2019-02-07T11:27:25.060Z,82.90
2019-02-07T11:28:25.019Z,82.70
2019-02-07T11:29:24.985Z,81.76
2019-02-07T11:30:24.942Z,81.66
2019-02-07T11:31:24.917Z,81.47
2019-02-07T11:32:24.855Z,83.94
2019-02-07T11:33:24.818Z,83.94
2019-02-07T11:34:24.782Z,83.85
2019-02-07T11:35:24.735Z,88.89
2019-02-07T11:36:24.698Z,85.47
2019-02-07T11:37:24.654Z,85.66
2019-02-07T11:38:24.617Z,82.61
2019-02-07T11:39:24.600Z,83.09
2019-02-07T11:40:24.542Z,84.42
2019-02-07T11:41:24.503Z,83.94
2019-02-07T11:42:24.462Z,84.23
2019-02-07T11:43:24.416Z,85.56
2019-02-07T11:44:24.386Z,85.94
2019-02-07T11:45:24.341Z,84.33
2019-02-07T11:46:24.298Z,82.23
2019-02-07T11:47:24.262Z,82.61
2019-02-07T11:48:24.231Z,81.28
2019-02-07T11:49:24.181Z,79.75
2019-02-07T11:50:24.139Z,81.18
2019-02-07T11:51:24.104Z,81.18
2019-02-07T11:52:24.064Z,82.32
2019-02-07T11:53:24.023Z,82.42
2019-02-07T11:54:23.985Z,82.51
2019-02-07T11:55:25.112Z,84.13
2019-02-07T11:56:23.905Z,86.32
2019-02-07T11:57:23.863Z,84.70
2019-02-07T11:58:32.628Z,84.61
2019-02-07T12:00:28.348Z,82.51
2019-02-07T12:01:28.313Z,82.32
2019-02-07T12:02:28.169Z,81.66
2019-02-07T12:03:28.295Z,79.09
2019-02-07T12:04:28.088Z,84.23
2019-02-07T12:05:28.042Z,80.04
2019-02-07T12:06:28.002Z,81.66
2019-02-07T12:07:27.970Z,83.65
2019-02-07T12:08:27.923Z,82.42
2019-02-07T12:09:27.881Z,82.23
2019-02-07T12:10:27.847Z,84.04
2019-02-07T12:11:27.802Z,83.85
2019-02-07T12:12:27.762Z,84.42
2019-02-07T12:13:27.726Z,85.85
2019-02-07T12:14:27.688Z,84.13
2019-02-07T12:15:27.653Z,83.75
2019-02-07T12:16:27.629Z,83.37
2019-02-07T12:17:27.563Z,85.66
2019-02-07T12:18:27.521Z,84.80
2019-02-07T12:19:27.485Z,87.27
2019-02-07T12:20:27.443Z,84.80
2019-02-07T12:21:27.410Z,83.75
2019-02-07T12:22:27.368Z,85.47
2019-02-07T12:23:27.323Z,80.90
2019-02-07T12:24:27.285Z,86.42
2019-02-07T12:25:27.252Z,86.80
2019-02-07T12:26:27.214Z,86.70
2019-02-07T12:27:27.171Z,87.46
2019-02-07T12:28:27.128Z,88.04
2019-02-07T12:29:27.090Z,87.75
2019-02-07T12:30:27.050Z,87.75
2019-02-07T12:31:27.006Z,88.23
2019-02-07T12:32:26.968Z,89.37
2019-02-07T12:33:26.931Z,88.84
2019-02-07T12:34:26.894Z,89.65
2019-02-07T12:35:26.856Z,90.94
2019-02-07T12:36:26.811Z,90.36
2019-02-07T12:37:26.777Z,88.51
2019-02-07T12:38:26.727Z,90.65
2019-02-07T12:39:26.696Z,91.51
2019-02-07T12:40:26.654Z,89.98
2019-02-07T12:41:26.614Z,89.32
2019-02-07T12:42:26.605Z,91.13
2019-02-07T12:43:26.528Z,91.70
2019-02-07T12:44:27.496Z,92.22
2019-02-07T12:45:26.455Z,89.98
2019-02-07T12:46:26.413Z,90.80
2019-02-07T12:47:26.381Z,91.46
2019-02-07T12:48:26.350Z,92.36
2019-02-07T12:49:29.216Z,91.37
2019-02-07T12:50:26.256Z,89.65
2019-02-07T12:51:26.215Z,90.17
2019-02-07T12:52:26.183Z,90.46
2019-02-07T12:53:26.141Z,89.41
2019-02-07T12:54:26.099Z,91.89
2019-02-07T12:55:26.880Z,88.46
2019-02-07T12:56:26.017Z,89.22
2019-02-07T12:57:25.981Z,90.46
2019-02-07T12:58:25.941Z,89.41
2019-02-07T12:59:25.917Z,88.93
2019-02-07T13:00:25.859Z,93.98
2019-02-07T13:01:25.827Z,92.27
2019-02-07T13:02:25.784Z,92.27
2019-02-07T13:03:25.765Z,96.94
2019-02-07T13:04:25.701Z,94.93
2019-02-07T13:05:25.716Z,94.37
2019-02-07T13:06:25.754Z,92.84
2019-02-07T13:07:25.591Z,93.79
2019-02-07T13:08:25.569Z,95.98
2019-02-07T13:09:25.517Z,94.56
2019-02-07T13:10:25.521Z,97.13
2019-02-07T13:11:25.512Z,97.22
2019-02-07T13:12:25.443Z,95.79
2019-02-07T13:13:25.383Z,97.51
2019-02-07T13:14:25.360Z,96.65
2019-02-07T13:15:25.433Z,94.56
2019-02-07T13:16:25.300Z,96.27
2019-02-07T13:17:25.240Z,94.74
2019-02-07T13:18:25.185Z,94.56
2019-02-07T13:19:25.124Z,94.46
2019-02-07T13:20:25.126Z,93.60
2019-02-07T13:21:25.026Z,93.51
2019-02-07T13:22:24.983Z,93.51
2019-02-07T13:23:24.991Z,92.84
2019-02-07T13:24:25.113Z,95.51
2019-02-07T13:25:24.876Z,94.84
2019-02-07T13:26:24.961Z,94.56
2019-02-07T13:27:24.823Z,95.22
2019-02-07T13:28:24.954Z,96.94
2019-02-07T13:29:24.847Z,95.89
2019-02-07T13:30:24.716Z,97.22
2019-02-07T13:31:24.765Z,96.08
2019-02-07T13:32:24.787Z,95.79
2019-02-07T13:33:24.588Z,95.79
2019-02-07T13:34:24.537Z,97.31
2019-02-07T13:35:24.527Z,96.27
2019-02-07T13:36:24.445Z,97.79
2019-02-07T13:37:24.420Z,97.60
2019-02-07T13:38:24.356Z,98.46
2019-02-07T13:39:24.317Z,99.99
2019-02-07T13:40:24.280Z,99.98
2019-02-07T13:41:24.235Z,99.99
2019-02-07T13:42:24.192Z,99.99
2019-02-07T13:43:24.160Z,99.99
2019-02-07T13:44:24.117Z,99.99
2019-02-07T13:45:24.076Z,99.99
2019-02-07T13:46:24.034Z,99.69
2019-02-07T13:47:23.994Z,99.69
2019-02-07T13:48:24.435Z,99.99
2019-02-07T13:49:23.942Z,99.99
2019-02-07T13:50:23.888Z,99.99
2019-02-07T13:51:23.846Z,99.99
2019-02-07T13:52:23.803Z,99.99
2019-02-07T13:53:23.760Z,99.99
2019-02-07T13:54:23.721Z,99.99
2019-02-07T13:55:23.681Z,99.99
2019-02-07T13:56:23.646Z,99.99
2019-02-07T13:57:23.606Z,98.65
2019-02-07T13:58:23.569Z,99.99
2019-02-07T13:59:23.526Z,98.46
2019-02-07T14:00:23.605Z,99.89
2019-02-07T14:01:23.449Z,98.84
2019-02-07T14:02:23.421Z,99.13
2019-02-07T14:03:23.378Z,99.99
2019-02-07T14:04:23.331Z,99.99
2019-02-07T14:05:23.288Z,99.99
2019-02-07T14:06:23.250Z,99.99
2019-02-07T14:07:23.213Z,99.99
2019-02-07T14:08:23.174Z,99.99
2019-02-07T14:09:23.136Z,99.99
2019-02-07T14:10:23.099Z,99.99
2019-02-07T14:11:23.057Z,99.99
2019-02-07T14:12:23.052Z,99.99
2019-02-07T14:13:22.971Z,99.99
2019-02-07T14:14:22.929Z,99.51
2019-02-07T14:15:22.895Z,99.13
2019-02-07T14:16:22.858Z,99.99
2019-02-07T14:17:22.813Z,99.99
2019-02-07T14:18:22.771Z,99.03
2019-02-07T14:19:22.738Z,98.55
2019-02-07T14:20:22.695Z,99.99
2019-02-07T14:21:22.658Z,98.84
2019-02-07T14:22:22.619Z,98.65
2019-02-07T14:23:22.586Z,99.99
2019-02-07T14:24:22.538Z,99.99
2019-02-07T14:25:22.501Z,99.99
2019-02-07T14:26:22.457Z,99.99
2019-02-07T14:27:22.418Z,99.99
2019-02-07T14:28:22.379Z,99.79
2019-02-07T14:29:22.341Z,99.79
2019-02-07T14:30:22.306Z,99.99
2019-02-07T14:31:22.260Z,99.51
2019-02-07T14:32:22.221Z,99.99
2019-02-07T14:33:22.182Z,99.69
2019-02-07T14:34:22.159Z,99.99
2019-02-07T14:35:22.108Z,99.99
2019-02-07T14:36:22.066Z,99.99
2019-02-07T14:37:22.024Z,99.99
2019-02-07T14:38:21.981Z,99.99
2019-02-07T14:39:21.942Z,99.99
2019-02-07T14:40:21.907Z,99.99
2019-02-07T14:41:21.868Z,99.99
2019-02-07T14:42:21.831Z,99.99
2019-02-07T14:43:21.791Z,99.99
2019-02-07T14:44:21.749Z,99.99
2019-02-07T14:45:21.710Z,99.99
2019-02-07T14:46:21.684Z,99.99
2019-02-07T14:47:21.631Z,99.99
2019-02-07T14:48:21.590Z,99.79
2019-02-07T14:49:21.551Z,99.99
2019-02-07T14:50:21.507Z,99.99
2019-02-07T14:51:21.469Z,99.99
2019-02-07T14:52:21.434Z,99.99
2019-02-07T14:53:21.395Z,99.99
2019-02-07T14:54:21.356Z,99.99